Time;durP1;ratioP1;P1;durP2;ratioP2;P2;SDS_P1;SDS_P2;PMS_P1;PMS_P2;Temp;Humidity;BMP_temperature;BMP_pressure;BME280_temperature;BME280_humidity;BME280_pressure;Samples;Min_cycle;Max_cycle;Signal;HPM_P1;HPM_P2
2021/03/07 00:00:11;;;;;;;10.83;9.40;;;;;;;-1.54;70.98;99694.13;5016353;27;104151;-88
2021/03/07 00:02:39;;;;;;;8.77;7.87;;;;;;;-1.43;71.11;99689.75;5020232;27;104828;-88
2021/03/07 00:05:09;;;;;;;11.20;8.90;;;;;;;-1.50;71.94;99690.66;5015494;27;103216;-86
2021/03/07 00:07:36;;;;;;;8.50;6.83;;;;;;;-1.36;71.48;99694.00;5019864;27;103710;-88
2021/03/07 00:10:06;;;;;;;12.23;9.70;;;;;;;-1.49;71.24;99688.06;5013386;27;104294;-88
2021/03/07 00:12:35;;;;;;;12.43;9.30;;;;;;;-1.87;72.30;99678.00;5012994;27;103146;-87
2021/03/07 00:15:02;;;;;;;10.93;8.33;;;;;;;-1.60;71.46;99683.84;5012688;27;103453;-87
2021/03/07 00:17:29;;;;;;;10.90;8.67;;;;;;;-1.55;70.82;99671.69;5016877;27;103509;-87
2021/03/07 00:19:58;;;;;;;10.53;9.07;;;;;;;-1.66;71.08;99683.88;5020031;27;103292;-88
2021/03/07 00:22:25;;;;;;;10.43;8.77;;;;;;;-1.57;71.15;99683.81;5021146;27;104494;-86
2021/03/07 00:24:52;;;;;;;11.10;8.40;;;;;;;-1.35;69.92;99681.00;5018617;27;103238;-87
2021/03/07 00:27:19;;;;;;;9.73;7.97;;;;;;;-1.27;69.39;99679.22;5018338;27;104526;-85
2021/03/07 00:29:46;;;;;;;8.53;6.60;;;;;;;-1.08;68.43;99684.22;5009586;28;106998;-87
2021/03/07 00:32:13;;;;;;;8.00;6.30;;;;;;;-1.02;68.76;99684.16;5020037;27;104426;-88
2021/03/07 00:34:40;;;;;;;9.77;7.50;;;;;;;-1.05;68.77;99685.03;5017208;27;103332;-86
2021/03/07 00:37:08;;;;;;;10.47;9.00;;;;;;;-1.50;71.49;99682.88;5018798;27;103913;-86
2021/03/07 00:39:35;;;;;;;11.90;10.00;;;;;;;-1.45;71.19;99679.38;5019936;27;105834;-87
2021/03/07 00:42:03;;;;;;;8.93;7.43;;;;;;;-1.34;70.94;99674.94;5025694;27;105160;-87
2021/03/07 00:44:30;;;;;;;11.27;8.50;;;;;;;-1.26;70.43;99674.88;5016838;27;103245;-87
2021/03/07 00:46:57;;;;;;;10.70;9.07;;;;;;;-1.39;71.25;99675.88;5024119;27;103845;-86
2021/03/07 00:49:26;;;;;;;11.07;8.57;;;;;;;-2.04;73.98;99672.06;5022392;27;104244;-87
2021/03/07 00:51:53;;;;;;;10.83;8.70;;;;;;;-1.98;73.84;99672.03;5019538;27;104433;-87
2021/03/07 00:54:21;;;;;;;7.60;6.77;;;;;;;-1.74;72.99;99665.78;5025289;27;103610;-87
2021/03/07 00:56:48;;;;;;;10.00;8.13;;;;;;;-1.53;71.58;99665.63;5019975;27;103402;-86
2021/03/07 00:59:15;;;;;;;9.73;7.77;;;;;;;-1.52;70.98;99669.09;5007050;27;104268;-89
2021/03/07 01:01:42;;;;;;;10.67;8.53;;;;;;;-1.79;73.11;99658.06;5029951;27;103944;-87
2021/03/07 01:04:10;;;;;;;16.47;9.40;;;;;;;-2.13;73.76;99659.16;5047670;27;102585;-88
2021/03/07 01:06:37;;;;;;;10.53;8.23;;;;;;;-2.04;73.44;99650.47;5025682;27;104295;-87
2021/03/07 01:09:04;;;;;;;14.07;8.67;;;;;;;-2.15;73.16;99653.16;5005294;27;112329;-88
2021/03/07 01:11:32;;;;;;;11.20;7.43;;;;;;;-2.15;73.26;99642.78;5007358;27;104212;-89
2021/03/07 01:13:59;;;;;;;11.50;8.33;;;;;;;-2.19;73.35;99641.06;5017455;27;104516;-88
2021/03/07 01:16:27;;;;;;;11.93;8.97;;;;;;;-2.23;73.85;99641.97;5008935;27;103531;-89
2021/03/07 01:18:54;;;;;;;8.70;7.60;;;;;;;-2.25;73.59;99641.16;5016543;27;111577;-87
2021/03/07 01:21:21;;;;;;;10.47;8.77;;;;;;;-2.33;73.98;99636.00;5022610;27;103224;-88
2021/03/07 01:23:48;;;;;;;9.10;7.83;;;;;;;-2.29;74.30;99638.56;5023038;27;104264;-88
2021/03/07 01:26:15;;;;;;;9.63;8.47;;;;;;;-2.23;73.72;99628.16;5023350;27;103234;-90
2021/03/07 01:28:43;;;;;;;9.10;7.73;;;;;;;-1.98;72.94;99625.41;5015727;27;104347;-90
2021/03/07 01:31:10;;;;;;;8.70;7.43;;;;;;;-1.78;72.09;99628.69;5023154;27;103701;-89
2021/03/07 01:33:37;;;;;;;11.00;8.50;;;;;;;-1.72;71.56;99619.16;5018942;27;102685;-88
2021/03/07 01:36:05;;;;;;;13.43;9.30;;;;;;;-2.47;74.56;99618.84;5005256;28;103375;-90
2021/03/07 01:38:32;;;;;;;10.63;8.90;;;;;;;-2.39;75.21;99619.66;5022701;27;103654;-86
2021/03/07 01:41:00;;;;;;;11.30;8.17;;;;;;;-2.21;74.49;99611.75;5020942;27;104106;-90
2021/03/07 01:43:27;;;;;;;9.90;7.23;;;;;;;-1.99;73.22;99607.28;5021878;27;104026;-90
2021/03/07 01:45:55;;;;;;;7.57;6.30;;;;;;;-1.85;72.27;99602.84;5023547;27;103581;-89
2021/03/07 01:48:23;;;;;;;8.90;7.80;;;;;;;-1.83;72.24;99608.88;5018792;27;104078;-90
2021/03/07 01:50:52;;;;;;;10.03;8.37;;;;;;;-1.88;73.04;99601.13;5017731;27;103302;-90
2021/03/07 01:53:20;;;;;;;8.67;7.63;;;;;;;-1.94;74.11;99595.16;5021001;27;102788;-88
2021/03/07 01:55:49;;;;;;;10.90;9.00;;;;;;;-2.10;73.18;99594.41;5018441;27;103106;-88
2021/03/07 01:58:20;;;;;;;11.60;8.70;;;;;;;-2.65;75.96;99586.16;5017131;27;103526;-88
2021/03/07 02:00:50;;;;;;;11.67;9.17;;;;;;;-2.63;76.04;99583.56;5016428;27;103877;-89
2021/03/07 02:03:21;;;;;;;8.93;6.57;;;;;;;-2.29;74.58;99584.19;5023485;27;102990;-87
2021/03/07 02:05:49;;;;;;;8.43;7.47;;;;;;;-2.17;73.41;99577.22;5011322;27;102944;-90
2021/03/07 02:08:18;;;;;;;7.63;6.63;;;;;;;-2.12;73.05;99572.84;5004490;27;103336;-87
2021/03/07 02:10:50;;;;;;;12.50;8.40;;;;;;;-2.11;73.33;99572.00;5014268;28;103867;-89
2021/03/07 02:13:20;;;;;;;10.23;8.70;;;;;;;-2.39;75.88;99557.53;5016691;27;103242;-88
2021/03/07 02:15:51;;;;;;;11.30;8.73;;;;;;;-2.51;76.62;99560.19;5016711;27;103009;-88
2021/03/07 02:18:19;;;;;;;10.00;7.93;;;;;;;-2.27;75.23;99557.44;5017395;27;104919;-88
2021/03/07 02:20:53;;;;;;;9.70;8.53;;;;;;;-2.18;75.15;99554.78;5000691;27;104605;-89
2021/03/07 02:23:22;;;;;;;10.70;8.37;;;;;;;-2.49;76.33;99551.56;5022669;27;103097;-88
2021/03/07 02:25:52;;;;;;;10.93;7.87;;;;;;;-2.35;76.19;99551.44;5016952;27;103112;-88
2021/03/07 02:28:21;;;;;;;10.43;8.60;;;;;;;-2.46;76.31;99548.94;5014717;27;104530;-87
2021/03/07 02:30:48;;;;;;;9.73;8.43;;;;;;;-2.79;78.24;99545.72;5018960;27;104821;-88
2021/03/07 02:33:20;;;;;;;9.50;7.00;;;;;;;-2.65;77.73;99541.31;5021155;27;104376;-89
2021/03/07 02:36:01;;;;;;;10.63;7.47;;;;;;;-2.40;75.76;99535.09;5014260;27;104418;-88
2021/03/07 02:38:32;;;;;;;7.90;6.60;;;;;;;-2.29;75.01;99533.28;5013333;27;106489;-88
2021/03/07 02:41:01;;;;;;;13.50;8.63;;;;;;;-2.58;75.13;99527.50;5004692;28;106590;-88
2021/03/07 02:43:34;;;;;;;10.30;8.57;;;;;;;-2.66;76.95;99535.28;5016684;27;102831;-88
2021/03/07 02:46:02;;;;;;;9.10;7.77;;;;;;;-2.43;75.59;99532.53;5017981;27;103065;-89
2021/03/07 02:48:30;;;;;;;9.93;8.70;;;;;;;-2.48;75.72;99524.81;5019265;27;103922;-88
2021/03/07 02:50:59;;;;;;;12.47;9.43;;;;;;;-2.88;77.70;99517.31;5021232;27;104544;-90
2021/03/07 02:53:29;;;;;;;12.70;8.73;;;;;;;-2.68;76.60;99515.47;5021486;27;104210;-88
2021/03/07 02:55:59;;;;;;;10.10;8.03;;;;;;;-3.17;78.99;99505.41;5002592;27;103459;-87
2021/03/07 02:58:30;;;;;;;11.73;9.50;;;;;;;-3.19;79.16;99507.13;4997817;27;107381;-90
2021/03/07 03:00:59;;;;;;;9.70;8.00;;;;;;;-2.96;78.38;99507.88;5018094;27;104298;-90
2021/03/07 03:03:30;;;;;;;10.87;8.47;;;;;;;-3.29;79.41;99500.31;5018938;27;103687;-90
2021/03/07 03:05:58;;;;;;;11.47;8.53;;;;;;;-3.28;79.65;99508.88;5013948;27;103212;-88
2021/03/07 03:08:27;;;;;;;11.03;8.53;;;;;;;-3.33;79.83;99501.16;4985068;27;105925;-89
2021/03/07 03:10:55;;;;;;;10.87;8.37;;;;;;;-3.18;78.91;99493.34;5008982;28;103278;-89
2021/03/07 03:13:33;;;;;;;12.13;8.57;;;;;;;-3.04;78.12;99494.16;5024453;28;103415;-88
2021/03/07 03:16:02;;;;;;;11.00;7.67;;;;;;;-2.92;78.44;99494.94;5016901;27;104398;-90
2021/03/07 03:18:31;;;;;;;11.13;8.40;;;;;;;-2.90;78.01;99494.06;5000378;27;104980;-87
2021/03/07 03:21:00;;;;;;;7.70;6.90;;;;;;;-2.75;76.84;99482.75;5018843;27;109000;-88
2021/03/07 03:23:28;;;;;;;8.57;7.17;;;;;;;-2.62;75.89;99489.56;5020115;27;102901;-90
2021/03/07 03:25:55;;;;;;;10.13;8.60;;;;;;;-2.77;76.96;99487.06;5019714;27;104093;-90
2021/03/07 03:28:24;;;;;;;7.20;6.10;;;;;;;-2.69;76.94;99488.72;5018806;27;103940;-88
2021/03/07 03:30:54;;;;;;;9.70;8.30;;;;;;;-2.99;78.35;99483.75;5017207;27;103888;-89
2021/03/07 03:33:21;;;;;;;10.57;8.73;;;;;;;-2.95;78.20;99490.66;5014942;27;104163;-89
2021/03/07 03:35:49;;;;;;;12.07;7.80;;;;;;;-2.76;77.22;99491.38;5017204;27;103060;-88
2021/03/07 03:38:17;;;;;;;8.53;7.30;;;;;;;-2.64;76.65;99494.72;5000177;28;104412;-89
2021/03/07 03:40:47;;;;;;;11.50;7.87;;;;;;;-2.61;75.75;99496.47;5020407;27;104573;-90
2021/03/07 03:43:14;;;;;;;12.63;8.30;;;;;;;-2.89;76.66;99487.16;5025477;27;104513;-90
2021/03/07 03:45:43;;;;;;;10.90;8.83;;;;;;;-3.14;78.37;99492.47;5015548;27;104352;-88
2021/03/07 03:48:16;;;;;;;11.40;8.60;;;;;;;-3.30;80.05;99488.22;5014716;27;104298;-89
2021/03/07 03:50:45;;;;;;;14.57;8.77;;;;;;;-3.53;81.19;99487.47;5017525;27;103376;-88
2021/03/07 03:53:15;;;;;;;12.50;8.90;;;;;;;-3.52;80.83;99481.44;5016288;27;104338;-90
2021/03/07 03:55:46;;;;;;;9.30;8.17;;;;;;;-3.65;81.73;99479.78;5014714;27;104433;-90
2021/03/07 03:58:15;;;;;;;10.57;8.73;;;;;;;-3.46;81.01;99476.25;5013054;27;103402;-89
2021/03/07 04:00:43;;;;;;;8.87;7.27;;;;;;;-3.19;79.80;99460.59;5021083;27;104201;-91
2021/03/07 04:03:14;;;;;;;12.07;8.50;;;;;;;-3.23;79.81;99484.78;5002379;27;102898;-90
2021/03/07 04:05:45;;;;;;;11.63;8.70;;;;;;;-3.49;81.36;99478.00;5017296;27;102959;-91
2021/03/07 04:08:13;;;;;;;12.40;8.33;;;;;;;-3.52;81.50;99476.28;5015235;27;103330;-89
2021/03/07 04:10:42;;;;;;;12.67;8.47;;;;;;;-3.35;80.73;99464.16;5015942;27;104225;-90
2021/03/07 04:13:11;;;;;;;12.03;8.87;;;;;;;-3.32;80.47;99468.44;5014208;27;104149;-91
2021/03/07 04:15:39;;;;;;;10.00;8.20;;;;;;;-3.20;79.80;99469.22;5017098;27;104380;-90
2021/03/07 04:18:08;;;;;;;8.73;7.13;;;;;;;-3.03;79.04;99461.38;5015952;27;104085;-88
2021/03/07 04:20:37;;;;;;;10.40;8.13;;;;;;;-3.02;79.45;99463.97;5015669;27;105992;-90
2021/03/07 04:23:04;;;;;;;8.80;7.57;;;;;;;-3.08;79.56;99457.97;5020403;27;103705;-89
2021/03/07 04:25:31;;;;;;;9.60;7.97;;;;;;;-3.11;80.07;99458.84;5016555;27;103491;-89
2021/03/07 04:27:59;;;;;;;12.70;8.90;;;;;;;-3.17;81.70;99464.03;5015491;27;104496;-89
2021/03/07 04:30:26;;;;;;;10.17;7.90;;;;;;;-3.07;81.27;99459.69;5019564;27;103164;-89
2021/03/07 04:32:55;;;;;;;11.07;8.20;;;;;;;-2.90;80.71;99462.16;5016119;27;103981;-91
2021/03/07 04:35:23;;;;;;;9.27;6.60;;;;;;;-2.77;79.71;99458.63;5017272;27;102970;-90
2021/03/07 04:37:51;;;;;;;11.17;8.10;;;;;;;-2.72;79.87;99451.69;5014883;27;104704;-89
2021/03/07 04:40:18;;;;;;;11.70;8.57;;;;;;;-2.88;80.16;99455.25;5006327;27;105158;-89
2021/03/07 04:42:46;;;;;;;12.13;8.47;;;;;;;-3.05;81.83;99452.78;5005458;27;102979;-90
2021/03/07 04:45:14;;;;;;;10.93;8.87;;;;;;;-3.06;81.63;99448.50;4983979;27;103565;-89
2021/03/07 04:47:42;;;;;;;11.73;8.23;;;;;;;-2.98;81.18;99450.16;5016168;27;104502;-91
2021/03/07 04:50:11;;;;;;;11.10;8.73;;;;;;;-2.82;80.13;99447.44;5007568;27;105817;-89
2021/03/07 04:52:38;;;;;;;11.03;8.60;;;;;;;-2.89;79.37;99450.97;5017973;27;103228;-89
2021/03/07 04:55:09;;;;;;;9.30;7.73;;;;;;;-2.92;80.06;99448.41;5014233;27;103334;-88
2021/03/07 04:57:36;;;;;;;8.57;6.47;;;;;;;-2.87;80.25;99441.44;5013641;27;103384;-89
2021/03/07 05:00:07;;;;;;;8.50;6.60;;;;;;;-2.80;80.04;99445.69;5004851;27;104173;-89
2021/03/07 05:02:34;;;;;;;8.97;6.97;;;;;;;-2.70;79.29;99437.03;5026796;27;103225;-89
2021/03/07 05:05:02;;;;;;;9.23;6.13;;;;;;;-2.68;78.39;99435.28;5024898;27;103518;-88
2021/03/07 05:07:29;;;;;;;11.33;8.40;;;;;;;-2.80;78.17;99443.13;5002104;27;105638;-90
2021/03/07 05:09:56;;;;;;;11.97;8.97;;;;;;;-2.88;78.34;99450.06;5019843;27;104476;-89
2021/03/07 05:12:24;;;;;;;9.27;6.60;;;;;;;-2.93;79.08;99439.78;5021664;27;103256;-87
2021/03/07 05:15:04;;;;;;;9.80;7.60;;;;;;;-3.16;80.77;99432.16;5005872;27;103091;-91
2021/03/07 05:17:31;;;;;;;11.67;7.73;;;;;;;-3.23;81.40;99438.25;5016684;27;104498;-89
2021/03/07 05:19:59;;;;;;;11.93;8.77;;;;;;;-3.63;82.55;99431.56;5024104;27;106522;-90
2021/03/07 05:22:26;;;;;;;10.33;6.87;;;;;;;-3.40;83.08;99434.91;5007152;27;104568;-89
2021/03/07 05:24:54;;;;;;;8.53;6.77;;;;;;;-3.17;81.56;99427.84;5017614;27;104478;-88
2021/03/07 05:27:22;;;;;;;12.67;9.40;;;;;;;-3.92;83.62;99421.31;5018840;27;103495;-89
2021/03/07 05:29:50;;;;;;;11.30;9.17;;;;;;;-3.97;84.89;99435.97;5018835;27;104593;-93
2021/03/07 05:32:17;;;;;;;10.27;9.17;;;;;;;-3.76;84.56;99425.56;5022417;27;103491;-89
2021/03/07 05:34:44;;;;;;;11.40;8.97;;;;;;;-3.69;84.79;99429.84;5022512;27;104255;-90
2021/03/07 05:37:12;;;;;;;11.67;8.50;;;;;;;-3.49;83.92;99429.75;5043630;27;103814;-88
2021/03/07 05:39:39;;;;;;;9.43;6.90;;;;;;;-3.31;83.04;99427.06;5026595;28;106664;-88
2021/03/07 05:42:06;;;;;;;9.20;6.70;;;;;;;-3.09;81.79;99428.66;5010902;27;102707;-90
2021/03/07 05:44:33;;;;;;;12.93;9.30;;;;;;;-3.42;82.55;99421.09;5028230;27;102769;-88
2021/03/07 05:47:01;;;;;;;10.33;7.50;;;;;;;-3.39;83.54;99415.06;5032399;27;103697;-88
2021/03/07 05:49:28;;;;;;;10.30;8.37;;;;;;;-3.54;83.79;99418.59;5034585;27;103844;-88
2021/03/07 05:51:56;;;;;;;10.30;7.30;;;;;;;-3.28;83.45;99406.38;5009978;27;102664;-90
2021/03/07 05:54:23;;;;;;;7.83;6.47;;;;;;;-3.12;82.04;99405.44;5030413;28;102570;-87
2021/03/07 05:56:53;;;;;;;10.67;7.00;;;;;;;-2.97;80.88;99413.06;5015429;27;105187;-88
2021/03/07 05:59:20;;;;;;;11.63;6.77;;;;;;;-2.91;80.23;99409.56;5006520;28;104885;-89
2021/03/07 06:01:48;;;;;;;10.20;7.60;;;;;;;-3.50;82.04;99397.03;5016530;28;102654;-88
2021/03/07 06:04:16;;;;;;;10.30;7.30;;;;;;;-3.45;83.80;99400.44;5014246;28;102666;-88
2021/03/07 06:06:43;;;;;;;12.13;8.40;;;;;;;-3.37;83.71;99393.53;5024141;27;103842;-88
2021/03/07 06:09:21;;;;;;;9.70;7.70;;;;;;;-3.40;84.18;99385.81;5027963;27;103801;-88
2021/03/07 06:11:49;;;;;;;9.33;6.93;;;;;;;-3.11;83.64;99401.09;5025678;27;102665;-87
2021/03/07 06:14:27;;;;;;;10.83;8.63;;;;;;;-3.12;81.26;99391.66;5028141;27;102608;-91
2021/03/07 06:16:58;;;;;;;12.90;8.93;;;;;;;-3.71;85.95;99392.00;5022666;27;103970;-89
2021/03/07 06:19:27;;;;;;;8.97;7.23;;;;;;;-3.33;84.71;99395.22;5004720;27;103976;-89
2021/03/07 06:21:54;;;;;;;9.60;7.30;;;;;;;-3.00;83.15;99397.56;5022742;27;102832;-88
2021/03/07 06:24:34;;;;;;;8.50;7.60;;;;;;;-2.80;81.63;99396.56;5009656;28;104265;-88
2021/03/07 06:27:06;;;;;;;12.90;8.10;;;;;;;-3.08;81.55;99395.91;5027528;28;104222;-88
2021/03/07 06:29:34;;;;;;;11.33;8.00;;;;;;;-3.40;84.22;99393.56;5010497;27;106794;-90
2021/03/07 06:32:08;;;;;;;9.73;7.00;;;;;;;-3.03;84.10;99404.47;5023380;27;102762;-90
2021/03/07 06:34:43;;;;;;;11.90;8.33;;;;;;;-2.98;83.57;99390.69;5009345;27;102746;-89
2021/03/07 06:37:11;;;;;;;9.83;6.70;;;;;;;-2.74;83.91;99391.34;5020816;27;104265;-88
2021/03/07 06:39:39;;;;;;;7.07;5.83;;;;;;;-2.46;82.35;99387.63;5025562;27;104066;-86
2021/03/07 06:42:07;;;;;;;8.47;6.50;;;;;;;-2.29;81.01;99390.06;5022297;27;103526;-89
2021/03/07 06:44:36;;;;;;;11.40;8.30;;;;;;;-2.36;81.49;99376.34;5019454;27;103540;-89
2021/03/07 06:47:09;;;;;;;8.53;6.57;;;;;;;-2.27;82.48;99381.41;5021826;27;103871;-90
2021/03/07 06:49:37;;;;;;;8.87;7.23;;;;;;;-2.03;80.74;99386.34;5020443;27;104202;-90
2021/03/07 06:52:13;;;;;;;8.00;6.23;;;;;;;-1.85;79.76;99382.66;5006567;28;103154;-92
2021/03/07 06:54:40;;;;;;;9.53;8.43;;;;;;;-1.70;79.24;99377.28;5006320;27;103135;-92
2021/03/07 06:57:08;;;;;;;10.23;7.53;;;;;;;-1.78;80.34;99379.13;5010312;27;103302;-90
2021/03/07 06:59:35;;;;;;;10.67;6.97;;;;;;;-1.67;79.66;99372.06;5017692;27;103221;-85
2021/03/07 07:02:11;;;;;;;12.37;8.50;;;;;;;-1.50;79.29;99374.44;5020185;27;104111;-87
2021/03/07 07:04:40;;;;;;;10.30;7.87;;;;;;;-1.70;79.88;99364.34;5015295;27;104034;-86
2021/03/07 07:07:09;;;;;;;8.80;7.03;;;;;;;-1.50;80.39;99374.44;5020206;27;103394;-83
2021/03/07 07:09:37;;;;;;;9.43;7.00;;;;;;;-1.13;79.35;99380.84;5006587;27;104278;-87
2021/03/07 07:12:07;;;;;;;8.93;6.50;;;;;;;-0.86;78.35;99375.22;5017885;27;103488;-85
2021/03/07 07:14:40;;;;;;;9.27;7.43;;;;;;;-0.69;76.86;99378.41;5006883;28;103207;-81
2021/03/07 07:17:09;;;;;;;10.43;7.20;;;;;;;-0.64;75.94;99383.50;5015140;27;104284;-80
2021/03/07 07:19:37;;;;;;;12.77;7.10;;;;;;;-0.67;77.01;99379.22;5005929;27;106183;-81
2021/03/07 07:22:04;;;;;;;10.07;7.50;;;;;;;-0.64;76.34;99380.91;5017151;27;102997;-87
2021/03/07 07:24:32;;;;;;;7.57;6.57;;;;;;;-0.22;75.66;99374.97;5013798;27;103636;-86
2021/03/07 07:27:00;;;;;;;7.17;5.63;;;;;;;0.18;74.47;99369.84;4991963;27;107145;-90
2021/03/07 07:29:27;;;;;;;7.87;6.30;;;;;;;-0.32;74.33;99369.97;5014559;27;104344;-86
2021/03/07 07:31:58;;;;;;;7.43;5.83;;;;;;;0.28;73.29;99373.13;5013489;27;104201;-85
2021/03/07 07:34:29;;;;;;;8.87;6.67;;;;;;;0.38;72.18;99362.50;5013152;27;103718;-84
2021/03/07 07:37:01;;;;;;;9.03;7.00;;;;;;;0.58;70.94;99370.75;4990893;27;106997;-85
2021/03/07 07:39:31;;;;;;;6.77;5.90;;;;;;;0.83;71.28;99368.44;4993841;27;104272;-92
2021/03/07 07:42:18;;;;;;;8.53;6.90;;;;;;;1.23;68.77;99363.16;5019189;27;103245;-80
2021/03/07 07:44:47;;;;;;;8.93;6.60;;;;;;;1.63;67.72;99371.66;5008872;27;105184;-79
2021/03/07 07:47:16;;;;;;;6.93;5.77;;;;;;;1.86;67.80;99362.38;4991008;27;104936;-82
2021/03/07 07:49:51;;;;;;;8.67;6.53;;;;;;;2.40;65.19;99360.88;5008273;27;104213;-82
2021/03/07 07:52:35;;;;;;;8.53;6.67;;;;;;;2.27;65.58;99370.78;4991172;27;103825;-85
2021/03/07 07:55:14;;;;;;;7.27;6.57;;;;;;;2.77;64.46;99358.88;4981830;27;104068;-88
2021/03/07 07:57:50;;;;;;;7.47;6.43;;;;;;;3.10;64.04;99359.56;5001798;28;106415;-87
2021/03/07 08:00:22;;;;;;;7.97;6.80;;;;;;;3.15;63.60;99362.88;5001132;27;104312;-86
2021/03/07 08:02:52;;;;;;;8.20;6.30;;;;;;;3.61;62.26;99362.22;5002665;27;103110;-86
2021/03/07 08:05:43;;;;;;;9.17;6.00;;;;;;;3.71;61.20;99363.63;4986179;27;104512;-87
2021/03/07 08:08:15;;;;;;;9.47;6.93;;;;;;;3.70;60.90;99367.16;5015222;27;104453;-88
2021/03/07 08:10:48;;;;;;;8.23;7.10;;;;;;;3.83;59.73;99363.19;4999369;27;105247;-86
2021/03/07 08:13:46;;;;;;;8.27;6.20;;;;;;;3.97;58.56;99360.97;5008153;27;103151;-85
2021/03/07 08:16:38;;;;;;;8.23;6.27;;;;;;;3.86;58.77;99352.63;5005265;27;103675;-87
2021/03/07 08:19:10;;;;;;;7.50;6.30;;;;;;;4.33;58.01;99352.69;5008631;27;104128;-88
2021/03/07 08:22:03;;;;;;;7.07;5.77;;;;;;;4.28;57.80;99349.38;5012520;27;103918;-82
2021/03/07 08:24:54;;;;;;;7.43;6.13;;;;;;;4.54;57.42;99346.66;5010280;27;104276;-79
2021/03/07 08:27:32;;;;;;;7.43;6.43;;;;;;;4.56;55.43;99340.47;5010372;27;104001;-82
2021/03/07 08:30:01;;;;;;;7.50;6.70;;;;;;;4.59;54.33;99344.72;5016368;27;103551;-82
2021/03/07 08:32:38;;;;;;;6.63;5.93;;;;;;;5.25;56.67;99339.44;5014801;27;103792;-82
2021/03/07 08:35:18;;;;;;;8.10;6.33;;;;;;;5.00;54.04;99336.09;4977616;27;103500;-83
2021/03/07 08:38:09;;;;;;;10.27;6.77;;;;;;;5.55;55.32;99334.72;5015561;27;104262;-83
2021/03/07 08:40:38;;;;;;;10.23;6.77;;;;;;;5.81;53.01;99338.88;4995360;27;103622;-83
2021/03/07 08:43:51;;;;;;;7.00;6.10;;;;;;;6.07;53.23;99329.88;4978585;28;106656;-82
2021/03/07 08:46:22;;;;;;;6.93;5.90;;;;;;;6.36;52.38;99329.44;4994527;27;103595;-85
2021/03/07 08:48:51;;;;;;;6.00;5.47;;;;;;;6.73;51.83;99326.81;5009970;28;103269;-82
2021/03/07 08:51:28;;;;;;;5.73;5.00;;;;;;;5.93;54.11;99314.75;5014075;27;103349;-84
2021/03/07 08:54:02;;;;;;;8.57;6.13;;;;;;;6.52;51.55;99316.44;5014983;27;105895;-82
2021/03/07 08:56:31;;;;;;;6.87;6.17;;;;;;;6.21;52.13;99316.97;5011792;27;104165;-86
2021/03/07 08:58:59;;;;;;;6.10;5.50;;;;;;;6.72;51.71;99316.38;4997091;27;103467;-84
2021/03/07 09:01:27;;;;;;;8.17;6.27;;;;;;;6.34;51.79;99311.09;5010798;27;104392;-83
2021/03/07 09:03:56;;;;;;;7.30;6.43;;;;;;;6.48;50.17;99307.03;5010819;27;105265;-87
2021/03/07 09:06:28;;;;;;;7.13;6.40;;;;;;;5.44;53.05;99308.09;5012673;27;104401;-87
2021/03/07 09:09:06;;;;;;;6.90;6.20;;;;;;;5.17;54.24;99312.72;5013987;27;103205;-85
2021/03/07 09:11:34;;;;;;;6.83;6.13;;;;;;;5.94;52.84;99305.09;5001159;27;107119;-88
2021/03/07 09:14:02;;;;;;;6.93;6.30;;;;;;;5.73;51.87;99309.47;5001764;27;104781;-85
2021/03/07 09:16:42;;;;;;;7.67;6.50;;;;;;;5.90;51.78;99299.13;4997362;27;103517;-86
2021/03/07 09:19:21;;;;;;;7.00;6.40;;;;;;;5.95;51.69;99297.16;5011490;27;103353;-90
2021/03/07 09:22:24;;;;;;;5.93;5.33;;;;;;;7.00;51.69;99301.00;5014699;27;104669;-89
2021/03/07 09:25:05;;;;;;;7.80;6.97;;;;;;;6.60;49.64;99291.53;5010640;27;103697;-89
2021/03/07 09:27:35;;;;;;;7.53;6.83;;;;;;;6.68;51.17;99289.38;4973480;27;104740;-88
2021/03/07 09:30:17;;;;;;;7.67;6.90;;;;;;;6.37;51.44;99279.47;5013034;27;103481;-88
2021/03/07 09:32:46;;;;;;;6.73;6.00;;;;;;;7.36;50.96;99278.16;5010025;27;105620;-86
2021/03/07 09:35:23;;;;;;;8.27;7.47;;;;;;;6.91;50.45;99280.41;5018759;27;104223;-86
2021/03/07 09:37:55;;;;;;;7.70;6.90;;;;;;;7.69;50.29;99280.03;5016804;27;102855;-87
2021/03/07 09:40:23;;;;;;;7.77;6.83;;;;;;;6.91;49.94;99280.41;5016714;27;103960;-89
2021/03/07 09:42:56;;;;;;;8.03;7.23;;;;;;;6.32;50.82;99276.22;5005068;27;104371;-86
2021/03/07 09:45:24;;;;;;;8.27;7.33;;;;;;;5.81;53.76;99281.16;5020259;27;104270;-89
2021/03/07 09:47:56;;;;;;;7.83;6.80;;;;;;;5.83;54.72;99276.69;5015584;27;103382;-89
2021/03/07 09:50:24;;;;;;;10.40;7.10;;;;;;;6.14;55.38;99271.81;5014179;27;103603;-77
2021/03/07 09:52:54;;;;;;;7.67;6.70;;;;;;;6.31;53.79;99269.28;5006775;27;104534;-83
2021/03/07 09:55:25;;;;;;;9.27;8.27;;;;;;;5.54;54.13;99271.84;5003955;27;104012;-82
2021/03/07 09:58:03;;;;;;;7.47;6.70;;;;;;;6.01;53.00;99265.41;5007185;27;103398;-83
2021/03/07 10:00:32;;;;;;;8.63;7.73;;;;;;;7.21;53.15;99264.94;4997046;27;104073;-84
2021/03/07 10:03:00;;;;;;;7.57;6.77;;;;;;;7.68;51.47;99262.53;5008560;27;103541;-81
2021/03/07 10:05:27;;;;;;;8.30;7.37;;;;;;;7.78;51.08;99254.06;5013659;27;103314;-83
2021/03/07 10:07:54;;;;;;;8.50;7.70;;;;;;;7.80;49.65;99260.13;5000653;27;103571;-82
2021/03/07 10:10:24;;;;;;;8.13;6.87;;;;;;;7.63;51.02;99243.50;5006312;27;103500;-82
2021/03/07 10:12:56;;;;;;;7.83;7.03;;;;;;;7.97;50.64;99246.09;5008720;27;104266;-82
2021/03/07 10:15:27;;;;;;;8.70;7.47;;;;;;;8.02;49.02;99244.06;4995519;27;106054;-83
2021/03/07 10:17:56;;;;;;;8.07;7.10;;;;;;;7.80;50.51;99246.13;5008456;27;104473;-83
2021/03/07 10:20:32;;;;;;;7.83;7.03;;;;;;;8.06;50.38;99232.41;4990513;27;104562;-83
2021/03/07 10:22:59;;;;;;;7.43;6.67;;;;;;;8.60;50.56;99237.34;4997170;28;106461;-83
2021/03/07 10:25:28;;;;;;;8.40;7.60;;;;;;;9.16;47.54;99234.09;5006054;27;104322;-83
2021/03/07 10:27:58;;;;;;;8.60;7.70;;;;;;;9.24;46.87;99225.72;5008833;27;104202;-83
2021/03/07 10:30:30;;;;;;;10.20;9.20;;;;;;;8.01;50.02;99234.44;4999199;27;106251;-83
2021/03/07 10:33:15;;;;;;;9.83;8.83;;;;;;;7.21;50.00;99230.78;5008012;27;104730;-83
2021/03/07 10:36:01;;;;;;;10.43;8.87;;;;;;;7.65;49.94;99229.34;5011038;27;104556;-83
2021/03/07 10:38:29;;;;;;;8.37;7.57;;;;;;;8.20;49.41;99224.63;5009680;27;104624;-84
2021/03/07 10:40:57;;;;;;;9.93;8.63;;;;;;;7.84;50.43;99231.84;5010697;27;103282;-84
2021/03/07 10:43:25;;;;;;;9.13;8.27;;;;;;;8.66;49.14;99223.81;4992964;27;106160;-84
2021/03/07 10:45:52;;;;;;;9.53;8.63;;;;;;;8.95;48.77;99214.28;5012414;27;104290;-84
2021/03/07 10:48:19;;;;;;;10.20;9.20;;;;;;;8.46;48.64;99221.44;5019422;27;102971;-84
2021/03/07 10:50:48;;;;;;;8.97;8.07;;;;;;;8.26;49.77;99219.03;5017466;27;104433;-84
2021/03/07 10:53:18;;;;;;;10.90;9.53;;;;;;;7.35;50.68;99225.69;5003736;28;103358;-84
2021/03/07 10:55:54;;;;;;;9.87;8.87;;;;;;;7.69;52.09;99217.72;5001632;28;106722;-84
2021/03/07 10:58:23;;;;;;;11.30;10.20;;;;;;;8.68;50.01;99208.78;5018206;27;102887;-84
2021/03/07 11:00:51;;;;;;;9.43;8.50;;;;;;;7.51;50.59;99219.56;5018773;27;103528;-84
2021/03/07 11:03:18;;;;;;;10.20;9.20;;;;;;;9.08;49.63;99211.75;5019956;27;104741;-84
2021/03/07 11:05:46;;;;;;;9.97;8.80;;;;;;;9.67;49.75;99209.06;4999262;27;107478;-83
2021/03/07 11:08:13;;;;;;;9.67;8.63;;;;;;;9.92;49.26;99213.69;5009836;27;104853;-83
2021/03/07 11:10:41;;;;;;;10.47;9.37;;;;;;;8.58;49.65;99214.66;5016366;28;104562;-83
2021/03/07 11:13:08;;;;;;;10.47;9.47;;;;;;;8.96;49.53;99205.41;5020500;28;104659;-84
2021/03/07 11:15:35;;;;;;;9.70;8.80;;;;;;;9.35;49.82;99212.78;5014306;27;103810;-84
2021/03/07 11:18:03;;;;;;;10.00;9.10;;;;;;;8.60;50.11;99204.88;5014184;27;104298;-83
2021/03/07 11:20:31;;;;;;;11.00;9.87;;;;;;;8.42;49.36;99209.38;4998006;27;104902;-84
2021/03/07 11:22:58;;;;;;;10.80;9.00;;;;;;;9.75;48.20;99212.09;5012210;27;103645;-83
2021/03/07 11:25:25;;;;;;;10.10;9.00;;;;;;;9.37;48.06;99208.28;4995100;27;103597;-83
2021/03/07 11:27:53;;;;;;;9.80;8.90;;;;;;;9.54;48.50;99205.47;5014842;27;103059;-83
2021/03/07 11:30:21;;;;;;;9.97;8.97;;;;;;;10.03;47.12;99210.38;5009432;27;104209;-83
2021/03/07 11:32:48;;;;;;;9.50;8.60;;;;;;;8.66;47.56;99199.25;5011694;27;103759;-83
2021/03/07 11:35:16;;;;;;;9.97;9.00;;;;;;;9.16;49.16;99193.69;5015217;27;104634;-83
2021/03/07 11:37:43;;;;;;;9.47;8.47;;;;;;;9.54;47.24;99186.16;5012675;27;103220;-82